createdAt,value
2018-09-07T00:00:43.749Z,90.50
2018-09-07T00:03:18.366Z,90.40
2018-09-07T00:05:52.793Z,90.40
2018-09-07T00:08:27.694Z,90.40
2018-09-07T00:11:02.321Z,90.40
2018-09-07T00:13:36.621Z,90.40
2018-09-07T00:16:11.496Z,90.40
2018-09-07T00:18:46.124Z,90.40
2018-09-07T00:21:21.816Z,90.40
2018-09-07T00:23:56.479Z,90.50
2018-09-07T00:26:31.180Z,90.50
2018-09-07T00:29:06.157Z,90.60
2018-09-07T00:31:40.961Z,91.00
2018-09-07T00:34:15.751Z,90.50
2018-09-07T00:36:51.000Z,90.50
2018-09-07T00:39:25.496Z,90.60
2018-09-07T00:42:00.286Z,90.60
2018-09-07T00:44:35.297Z,90.60
2018-09-07T00:47:10.047Z,90.60
2018-09-07T00:49:45.242Z,90.40
2018-09-07T00:52:20.096Z,90.60
2018-09-07T00:54:54.837Z,90.30
2018-09-07T00:57:29.460Z,90.30
2018-09-07T01:00:04.804Z,90.30
2018-09-07T01:02:43.025Z,90.30
2018-09-07T01:05:18.102Z,90.40
2018-09-07T01:07:52.731Z,90.40
2018-09-07T01:10:27.564Z,90.40
2018-09-07T01:13:01.897Z,90.40
2018-09-07T01:15:36.285Z,90.40
2018-09-07T01:18:10.773Z,90.50
2018-09-07T01:20:45.544Z,90.50
2018-09-07T01:23:20.016Z,90.40
2018-09-07T01:25:55.062Z,90.40
2018-09-07T01:28:29.841Z,90.40
2018-09-07T01:31:05.040Z,90.40
2018-09-07T01:33:39.444Z,90.40
2018-09-07T01:36:14.453Z,90.40
2018-09-07T01:38:49.041Z,90.50
2018-09-07T01:41:23.894Z,90.50
2018-09-07T01:43:58.573Z,90.50
2018-09-07T01:46:33.412Z,90.60
2018-09-07T01:49:08.258Z,90.70
2018-09-07T01:51:42.737Z,90.70
2018-09-07T01:54:17.645Z,90.70
2018-09-07T01:56:52.481Z,90.80
2018-09-07T01:59:27.060Z,90.80
2018-09-07T02:02:02.124Z,90.60
2018-09-07T02:04:36.717Z,90.90
2018-09-07T02:07:11.782Z,90.80
2018-09-07T02:09:46.299Z,90.90
2018-09-07T02:12:21.573Z,90.90
2018-09-07T02:15:02.526Z,91.00
2018-09-07T02:17:37.456Z,91.00
2018-09-07T02:20:12.076Z,91.10
2018-09-07T02:22:47.200Z,91.10
2018-09-07T02:25:22.322Z,91.30
2018-09-07T02:27:56.589Z,91.40
2018-09-07T02:30:31.355Z,91.50
2018-09-07T02:33:06.205Z,91.50
2018-09-07T02:35:41.356Z,91.50
2018-09-07T02:38:16.182Z,91.50
2018-09-07T02:40:50.792Z,91.50
2018-09-07T02:43:25.744Z,91.50
2018-09-07T02:46:00.001Z,91.50
2018-09-07T02:48:34.822Z,91.50
2018-09-07T02:51:09.476Z,91.40
2018-09-07T02:53:44.032Z,91.50
2018-09-07T02:56:18.476Z,91.50
2018-09-07T02:58:53.358Z,91.50
2018-09-07T03:01:27.868Z,91.50
2018-09-07T03:04:02.274Z,91.50
2018-09-07T03:06:36.960Z,91.60
2018-09-07T03:09:11.580Z,91.70
2018-09-07T03:11:46.238Z,91.60
2018-09-07T03:14:20.892Z,91.60
2018-09-07T03:16:55.339Z,91.60
2018-09-07T03:19:30.417Z,91.60
2018-09-07T03:22:04.752Z,91.70
2018-09-07T03:24:39.444Z,91.60
2018-09-07T03:27:14.302Z,91.60
2018-09-07T03:29:48.763Z,91.70
2018-09-07T03:32:23.197Z,91.70
2018-09-07T03:34:57.568Z,91.60
2018-09-07T03:37:32.668Z,91.60
2018-09-07T03:40:07.993Z,91.60
2018-09-07T03:42:42.187Z,91.60
2018-09-07T03:45:16.558Z,91.50
2018-09-07T03:47:51.362Z,91.60
2018-09-07T03:50:26.188Z,91.60
2018-09-07T03:53:00.808Z,91.50
2018-09-07T03:55:36.315Z,91.50
2018-09-07T03:58:10.833Z,91.60
2018-09-07T04:00:45.949Z,91.60
2018-09-07T04:03:20.401Z,91.60
2018-09-07T04:05:55.068Z,91.60
2018-09-07T04:08:30.133Z,91.60
2018-09-07T04:11:05.110Z,91.60
2018-09-07T04:13:39.645Z,91.60
2018-09-07T04:16:14.171Z,91.60
2018-09-07T04:18:48.889Z,91.60
2018-09-07T04:21:23.475Z,91.60
2018-09-07T04:23:58.399Z,91.60
2018-09-07T04:26:33.045Z,91.60
2018-09-07T04:29:07.948Z,91.60
2018-09-07T04:31:42.621Z,91.60
2018-09-07T04:34:17.629Z,91.60
2018-09-07T04:36:52.840Z,91.70
2018-09-07T04:39:27.241Z,91.70
2018-09-07T04:42:02.329Z,91.70
2018-09-07T04:44:36.461Z,91.70
2018-09-07T04:47:10.843Z,91.70
2018-09-07T04:49:45.642Z,91.70
2018-09-07T04:52:20.377Z,91.70
2018-09-07T04:54:55.024Z,91.70
2018-09-07T04:57:29.758Z,91.70
2018-09-07T05:00:05.376Z,91.70
2018-09-07T05:02:40.546Z,91.70
2018-09-07T05:05:15.433Z,91.70
2018-09-07T05:07:50.316Z,91.70
2018-09-07T05:10:25.180Z,91.80
2018-09-07T05:13:00.492Z,91.70
2018-09-07T05:15:35.215Z,91.70
2018-09-07T05:18:09.451Z,91.80
2018-09-07T05:20:44.284Z,91.80
2018-09-07T05:23:19.529Z,91.70
2018-09-07T05:25:53.639Z,91.70
2018-09-07T05:28:28.314Z,91.70
2018-09-07T05:31:03.372Z,91.80
2018-09-07T05:33:38.245Z,91.90
2018-09-07T05:36:12.918Z,92.10
2018-09-07T05:38:47.456Z,91.70
2018-09-07T05:41:22.213Z,91.30
2018-09-07T05:43:56.872Z,91.20
2018-09-07T05:46:31.872Z,90.90
2018-09-07T05:49:06.777Z,90.60
2018-09-07T05:51:41.199Z,90.50
2018-09-07T05:54:16.133Z,90.40
2018-09-07T05:56:50.689Z,90.30
2018-09-07T05:59:25.402Z,90.40
2018-09-07T06:02:00.369Z,90.40
2018-09-07T06:04:35.483Z,90.50
2018-09-07T06:07:10.569Z,90.50
2018-09-07T06:09:45.576Z,90.50
2018-09-07T06:12:20.763Z,90.60
2018-09-07T06:14:55.462Z,90.70
2018-09-07T06:17:29.841Z,90.70
2018-09-07T06:20:04.577Z,90.60
2018-09-07T06:22:39.398Z,90.70
2018-09-07T06:25:14.053Z,90.70
2018-09-07T06:27:48.705Z,90.70
2018-09-07T06:30:23.976Z,90.70
2018-09-07T06:32:58.145Z,90.70
2018-09-07T06:35:32.884Z,90.70
2018-09-07T06:38:07.763Z,90.50
2018-09-07T06:40:42.610Z,90.80
2018-09-07T06:43:17.473Z,90.80
2018-09-07T06:45:52.476Z,90.80
2018-09-07T06:48:27.069Z,90.80
2018-09-07T06:51:01.950Z,91.10
2018-09-07T06:53:36.571Z,90.80
2018-09-07T06:56:11.563Z,90.80
2018-09-07T06:58:46.161Z,90.80
2018-09-07T07:01:21.435Z,90.80
2018-09-07T07:03:56.445Z,90.80
2018-09-07T07:06:31.129Z,90.90
2018-09-07T07:09:06.361Z,90.90
2018-09-07T07:11:40.845Z,91.00
2018-09-07T07:14:15.876Z,91.00
2018-09-07T07:16:50.730Z,91.20
2018-09-07T07:19:25.453Z,91.20
2018-09-07T07:22:00.320Z,91.20
2018-09-07T07:24:35.164Z,91.00
2018-09-07T07:27:09.500Z,90.90
2018-09-07T07:29:44.061Z,90.80
2018-09-07T07:32:18.873Z,90.60
2018-09-07T07:37:30.408Z,90.50
2018-09-07T07:40:04.898Z,90.30
2018-09-07T07:42:39.485Z,90.40
2018-09-07T07:45:14.116Z,90.40
2018-09-07T07:47:48.917Z,90.50
2018-09-07T07:50:23.484Z,90.60
2018-09-07T07:52:58.298Z,90.80
2018-09-07T07:55:32.657Z,90.90
2018-09-07T07:58:07.480Z,91.10
2018-09-07T08:00:42.201Z,90.80
2018-09-07T08:03:17.051Z,90.30
2018-09-07T08:05:51.752Z,89.70
2018-09-07T08:08:26.245Z,88.50
2018-09-07T08:11:01.248Z,87.10
2018-09-07T08:13:35.722Z,85.30
2018-09-07T08:16:10.213Z,84.00
2018-09-07T08:18:44.704Z,83.80
2018-09-07T08:21:19.366Z,82.80
2018-09-07T08:23:54.348Z,82.70
2018-09-07T08:26:28.728Z,81.70
2018-09-07T08:29:03.444Z,80.80
2018-09-07T08:31:37.973Z,80.30
2018-09-07T08:34:12.725Z,79.90
2018-09-07T08:36:47.372Z,80.50
2018-09-07T08:39:21.971Z,81.80
2018-09-07T08:41:56.672Z,82.10
2018-09-07T08:44:32.352Z,82.30
2018-09-07T08:47:07.053Z,82.20
2018-09-07T08:49:41.819Z,82.70
2018-09-07T08:52:16.225Z,83.20
2018-09-07T08:54:51.112Z,83.40
2018-09-07T08:57:25.736Z,84.10
2018-09-07T09:00:00.493Z,83.00
2018-09-07T09:02:35.085Z,83.10
2018-09-07T09:05:09.613Z,83.20
2018-09-07T09:07:44.518Z,82.70
2018-09-07T09:10:18.821Z,82.60
2018-09-07T09:12:53.419Z,82.70
2018-09-07T09:15:28.370Z,82.90
2018-09-07T09:18:02.765Z,82.60
2018-09-07T09:20:37.290Z,82.70
2018-09-07T09:23:12.477Z,83.40
2018-09-07T09:25:46.937Z,83.70
2018-09-07T09:28:21.552Z,84.00
2018-09-07T09:30:56.230Z,84.90
2018-09-07T09:33:30.997Z,84.80
2018-09-07T09:36:05.611Z,84.90
2018-09-07T09:38:40.223Z,84.60
2018-09-07T09:41:14.876Z,83.50
2018-09-07T09:43:49.665Z,82.70
2018-09-07T09:46:24.287Z,82.80
2018-09-07T09:48:58.772Z,82.90
2018-09-07T09:51:33.946Z,82.70
2018-09-07T09:54:08.225Z,82.00
2018-09-07T09:56:42.852Z,82.40
2018-09-07T09:59:17.386Z,82.50
2018-09-07T10:01:57.715Z,82.00
2018-09-07T10:04:32.874Z,81.90
2018-09-07T10:07:07.607Z,81.70
2018-09-07T10:09:42.219Z,81.60
2018-09-07T10:12:16.880Z,81.20
2018-09-07T10:14:51.436Z,80.00
2018-09-07T10:17:26.160Z,78.70
2018-09-07T10:20:01.749Z,77.40
2018-09-07T10:22:36.471Z,77.60
2018-09-07T10:25:11.158Z,76.50
2018-09-07T10:27:45.872Z,75.50
2018-09-07T10:30:20.518Z,74.30
2018-09-07T10:32:55.177Z,74.70
2018-09-07T10:35:29.860Z,74.60
2018-09-07T10:38:05.001Z,74.60
2018-09-07T10:40:39.886Z,75.20
2018-09-07T10:43:14.657Z,74.70
2018-09-07T10:45:49.340Z,74.90
2018-09-07T10:48:24.077Z,72.80
2018-09-07T10:50:58.797Z,72.80
2018-09-07T10:53:33.602Z,73.00
2018-09-07T10:56:08.419Z,72.20
2018-09-07T10:58:43.065Z,71.50
2018-09-07T11:01:17.929Z,72.80
2018-09-07T11:03:52.574Z,71.40
2018-09-07T11:06:27.068Z,70.90
2018-09-07T11:09:01.991Z,69.90
2018-09-07T11:11:36.816Z,70.40
2018-09-07T11:14:11.360Z,71.00
2018-09-07T11:16:45.926Z,69.50
2018-09-07T11:19:20.975Z,67.30
2018-09-07T11:21:55.091Z,67.70
2018-09-07T11:24:29.880Z,68.90
2018-09-07T11:27:04.686Z,71.10
2018-09-07T11:29:39.276Z,70.40
2018-09-07T11:32:13.700Z,69.00
2018-09-07T11:34:48.832Z,70.20
2018-09-07T11:37:23.238Z,69.20
2018-09-07T11:39:58.188Z,70.50
2018-09-07T11:42:32.573Z,70.10
2018-09-07T11:45:07.196Z,69.40
2018-09-07T11:47:42.001Z,69.30
2018-09-07T11:50:16.580Z,70.40
2018-09-07T11:52:51.206Z,71.20
2018-09-07T11:55:25.876Z,69.00
2018-09-07T11:58:00.540Z,68.20
2018-09-07T12:00:35.328Z,67.40
2018-09-07T12:03:09.543Z,68.00
2018-09-07T12:05:44.294Z,68.80
2018-09-07T12:08:18.840Z,69.60
2018-09-07T12:10:53.628Z,70.80
2018-09-07T12:13:28.670Z,70.70
2018-09-07T12:16:03.213Z,70.80
2018-09-07T12:18:37.930Z,71.40
2018-09-07T12:21:12.744Z,71.60
2018-09-07T12:23:47.109Z,71.90
2018-09-07T12:26:22.042Z,72.10
2018-09-07T12:28:56.642Z,70.90
2018-09-07T12:31:31.634Z,71.00
2018-09-07T12:34:05.836Z,70.00
2018-09-07T12:36:40.516Z,68.80
2018-09-07T12:39:14.675Z,68.50
2018-09-07T12:41:49.974Z,68.00
2018-09-07T12:44:26.641Z,68.50
2018-09-07T12:47:02.862Z,68.60
2018-09-07T12:49:39.352Z,69.80
2018-09-07T12:52:14.410Z,70.50
2018-09-07T12:54:49.921Z,71.10
2018-09-07T12:57:24.281Z,71.10
2018-09-07T12:59:59.045Z,72.20
2018-09-07T13:02:34.087Z,72.30
2018-09-07T13:05:08.424Z,72.70
2018-09-07T13:07:43.576Z,71.10
2018-09-07T13:10:18.184Z,71.20
2018-09-07T13:12:52.857Z,71.10
2018-09-07T13:15:27.421Z,71.10
2018-09-07T13:18:02.249Z,72.20
2018-09-07T13:20:36.936Z,72.50
2018-09-07T13:23:11.416Z,72.00
2018-09-07T13:25:46.297Z,71.40
2018-09-07T13:28:21.119Z,71.90
2018-09-07T13:30:56.006Z,73.00
2018-09-07T13:33:30.466Z,73.40
2018-09-07T13:36:05.161Z,72.80
2018-09-07T13:38:39.876Z,72.50
2018-09-07T13:41:14.923Z,72.70
2018-09-07T13:43:49.037Z,72.70
2018-09-07T13:46:23.576Z,72.60
2018-09-07T13:48:58.522Z,72.90
2018-09-07T13:51:33.071Z,73.50
2018-09-07T13:54:08.457Z,75.00
2018-09-07T13:56:43.112Z,77.00
2018-09-07T13:59:17.824Z,77.80
2018-09-07T14:01:52.476Z,78.30
2018-09-07T14:04:27.244Z,78.80
2018-09-07T14:07:01.897Z,79.70
2018-09-07T14:09:36.560Z,80.70
2018-09-07T14:12:11.550Z,81.10
2018-09-07T14:14:45.849Z,82.10
2018-09-07T14:17:20.517Z,83.40
2018-09-07T14:19:55.458Z,83.70
2018-09-07T14:22:30.112Z,84.30
2018-09-07T14:25:04.933Z,85.00
2018-09-07T14:27:40.005Z,85.30
2018-09-07T14:30:14.893Z,85.10
2018-09-07T14:32:49.673Z,85.00
2018-09-07T14:35:24.321Z,84.90
2018-09-07T14:37:58.972Z,85.00
2018-09-07T14:40:33.726Z,84.40
2018-09-07T14:43:08.498Z,84.60
2018-09-07T14:45:43.141Z,84.50
2018-09-07T14:48:17.777Z,84.90
2018-09-07T14:50:52.637Z,85.00
2018-09-07T14:53:27.386Z,84.90
2018-09-07T14:56:02.134Z,84.90
2018-09-07T14:58:36.729Z,84.80
2018-09-07T15:01:11.405Z,84.90
2018-09-07T15:03:46.095Z,84.70
2018-09-07T15:06:20.744Z,84.90
2018-09-07T15:08:55.360Z,84.80
2018-09-07T15:11:30.474Z,84.80
2018-09-07T15:14:04.881Z,85.00
2018-09-07T15:16:39.661Z,84.80
2018-09-07T15:19:14.389Z,84.80
2018-09-07T15:21:49.117Z,84.10
2018-09-07T15:24:23.648Z,82.60
2018-09-07T15:26:58.568Z,82.50
2018-09-07T15:29:33.148Z,82.10
2018-09-07T15:32:07.951Z,81.90
2018-09-07T15:34:42.737Z,82.80
2018-09-07T15:37:17.168Z,83.10
2018-09-07T15:39:51.727Z,83.40
2018-09-07T15:42:26.362Z,82.90
2018-09-07T15:45:01.216Z,81.90
2018-09-07T15:47:36.065Z,81.80
2018-09-07T15:50:10.520Z,82.10
2018-09-07T15:52:45.164Z,82.70
2018-09-07T15:55:19.944Z,82.80
2018-09-07T15:57:54.957Z,82.80
2018-09-07T16:00:29.324Z,82.90
2018-09-07T16:03:04.079Z,83.20
2018-09-07T16:05:38.597Z,83.50
2018-09-07T16:08:13.327Z,83.60
2018-09-07T16:10:47.905Z,83.70
2018-09-07T16:13:22.415Z,83.50
2018-09-07T16:15:57.026Z,83.00
2018-09-07T16:18:31.985Z,82.40
2018-09-07T16:21:06.440Z,82.80
2018-09-07T16:23:41.347Z,83.30
2018-09-07T16:26:15.789Z,83.80
2018-09-07T16:28:50.892Z,84.40
2018-09-07T16:31:25.077Z,85.10
2018-09-07T16:33:59.817Z,84.40
2018-09-07T16:36:34.460Z,84.00
2018-09-07T16:39:09.468Z,84.90
2018-09-07T16:41:43.564Z,85.10
2018-09-07T16:44:18.337Z,85.60
2018-09-07T16:46:52.957Z,85.80
2018-09-07T16:49:27.846Z,86.00
2018-09-07T16:52:02.587Z,86.60
2018-09-07T16:54:37.294Z,86.80
2018-09-07T16:57:12.028Z,86.90
2018-09-07T16:59:46.968Z,87.20
2018-09-07T17:02:21.314Z,87.50
2018-09-07T17:04:56.028Z,87.50
2018-09-07T17:07:30.688Z,87.60
2018-09-07T17:10:06.280Z,87.80
2018-09-07T17:12:41.076Z,88.10
2018-09-07T17:15:15.757Z,88.40
2018-09-07T17:17:50.635Z,88.40
2018-09-07T17:20:24.884Z,88.50
2018-09-07T17:22:59.348Z,88.60
2018-09-07T17:25:34.042Z,88.60
2018-09-07T17:28:08.513Z,88.70
2018-09-07T17:30:43.311Z,88.70
2018-09-07T17:33:18.060Z,88.60
2018-09-07T17:35:52.754Z,88.80
2018-09-07T17:38:27.429Z,88.80
2018-09-07T17:41:02.443Z,88.70
2018-09-07T17:43:37.220Z,89.10
2018-09-07T17:46:11.729Z,88.80
2018-09-07T17:48:46.489Z,88.50
2018-09-07T17:51:21.138Z,88.20
2018-09-07T17:53:55.839Z,87.90
2018-09-07T17:56:30.712Z,87.80
2018-09-07T17:59:05.353Z,88.00
2018-09-07T18:01:40.978Z,88.20
2018-09-07T18:04:15.410Z,88.40
2018-09-07T18:06:50.077Z,88.60
2018-09-07T18:09:24.671Z,88.70
2018-09-07T18:11:59.417Z,88.70
2018-09-07T18:14:34.151Z,88.80
2018-09-07T18:17:08.998Z,89.00
2018-09-07T18:19:44.053Z,89.20
2018-09-07T18:22:18.484Z,89.40
2018-09-07T18:24:52.968Z,89.50
2018-09-07T18:27:27.496Z,89.70
2018-09-07T18:30:02.273Z,89.80
2018-09-07T18:32:36.816Z,89.90
2018-09-07T18:35:11.641Z,90.10
2018-09-07T18:37:46.254Z,90.20
2018-09-07T18:40:20.714Z,90.30
2018-09-07T18:42:55.497Z,90.20
2018-09-07T18:45:30.297Z,90.20
2018-09-07T18:48:05.340Z,90.30
2018-09-07T18:50:39.604Z,90.30
2018-09-07T18:53:14.408Z,90.30
2018-09-07T18:55:49.011Z,90.30
2018-09-07T18:58:23.476Z,90.30
2018-09-07T19:00:58.184Z,90.30
2018-09-07T19:03:33.079Z,90.30
2018-09-07T19:06:07.319Z,90.40
2018-09-07T19:08:42.244Z,90.40
2018-09-07T19:11:17.064Z,90.40
2018-09-07T19:13:51.650Z,90.70
2018-09-07T19:16:27.325Z,90.40
2018-09-07T19:19:02.145Z,90.50
2018-09-07T19:21:36.408Z,90.60
2018-09-07T19:24:11.536Z,90.60
2018-09-07T19:26:45.969Z,91.00
2018-09-07T19:29:20.497Z,90.80
2018-09-07T19:31:55.171Z,90.90
2018-09-07T19:34:29.953Z,91.00
2018-09-07T19:37:04.638Z,90.90
2018-09-07T19:39:39.409Z,91.00
2018-09-07T19:42:13.963Z,91.10
2018-09-07T19:44:48.454Z,91.20
2018-09-07T19:47:22.978Z,91.20
2018-09-07T19:49:57.684Z,91.30
2018-09-07T19:52:32.259Z,91.20
2018-09-07T19:55:07.077Z,91.30
2018-09-07T19:57:41.568Z,91.20
2018-09-07T20:00:16.757Z,91.30
2018-09-07T20:02:50.893Z,91.30
2018-09-07T20:05:25.577Z,91.30
2018-09-07T20:08:00.334Z,91.20
2018-09-07T20:10:34.936Z,91.20
2018-09-07T20:13:09.898Z,91.30
2018-09-07T20:15:44.284Z,91.40
2018-09-07T20:18:18.957Z,91.20
2018-09-07T20:20:53.639Z,91.20
2018-09-07T20:23:28.326Z,91.20
2018-09-07T20:26:02.973Z,91.10
2018-09-07T20:28:37.657Z,91.10
2018-09-07T20:31:12.332Z,91.10
2018-09-07T20:33:47.084Z,91.10
2018-09-07T20:36:21.206Z,91.20
2018-09-07T20:38:55.672Z,91.20
2018-09-07T20:41:30.292Z,91.20
2018-09-07T20:44:05.224Z,91.30
2018-09-07T20:46:39.565Z,91.20
2018-09-07T20:49:14.184Z,91.20
2018-09-07T20:51:48.774Z,91.30
2018-09-07T20:54:23.351Z,91.30
2018-09-07T20:56:58.044Z,91.40
2018-09-07T20:59:32.629Z,91.30
2018-09-07T21:02:07.437Z,91.20
2018-09-07T21:04:41.780Z,91.20
2018-09-07T21:07:16.898Z,91.00
2018-09-07T21:09:51.252Z,90.90
2018-09-07T21:12:25.752Z,90.80
2018-09-07T21:15:00.380Z,90.60
2018-09-07T21:17:35.188Z,90.50
2018-09-07T21:20:09.788Z,90.50
2018-09-07T21:22:44.988Z,90.40
2018-09-07T21:25:19.772Z,90.40
2018-09-07T21:27:55.091Z,90.40
2018-09-07T21:30:29.843Z,90.40
2018-09-07T21:33:04.648Z,90.40
2018-09-07T21:35:39.047Z,90.40
2018-09-07T21:38:13.562Z,90.50
2018-09-07T21:40:48.169Z,90.50
2018-09-07T21:43:23.146Z,90.40
2018-09-07T21:45:57.326Z,90.50
2018-09-07T21:48:31.729Z,90.50
2018-09-07T21:51:06.736Z,90.60
2018-09-07T21:53:41.303Z,90.60
2018-09-07T21:56:15.544Z,90.60
2018-09-07T21:58:50.098Z,90.50
2018-09-07T22:01:25.510Z,90.50
2018-09-07T22:04:00.209Z,90.50
2018-09-07T22:06:40.601Z,90.50
2018-09-07T22:09:15.541Z,90.60
2018-09-07T22:11:49.780Z,90.60
2018-09-07T22:14:24.759Z,90.60
2018-09-07T22:16:59.343Z,90.60
2018-09-07T22:19:33.992Z,90.60
2018-09-07T22:22:09.172Z,90.90
2018-09-07T22:24:44.367Z,90.50
2018-09-07T22:27:19.214Z,90.50
2018-09-07T22:29:53.961Z,90.40
2018-09-07T22:32:28.381Z,90.20
2018-09-07T22:35:03.524Z,90.30
2018-09-07T22:37:38.141Z,90.30
2018-09-07T22:40:13.332Z,90.30
2018-09-07T22:42:47.764Z,90.20
2018-09-07T22:45:22.490Z,90.30
2018-09-07T22:47:57.288Z,90.30
2018-09-07T22:50:32.552Z,90.40
2018-09-07T22:53:07.181Z,90.40
2018-09-07T22:55:41.964Z,90.50
2018-09-07T22:58:16.947Z,90.60
2018-09-07T23:00:51.869Z,90.60
2018-09-07T23:03:26.787Z,90.90
2018-09-07T23:06:01.406Z,90.70
2018-09-07T23:08:36.021Z,90.70
2018-09-07T23:11:10.776Z,90.80
2018-09-07T23:13:45.499Z,90.70
2018-09-07T23:16:20.556Z,90.70
2018-09-07T23:18:55.112Z,90.80
2018-09-07T23:21:29.628Z,90.70
2018-09-07T23:24:04.426Z,90.80
2018-09-07T23:26:39.261Z,90.80
2018-09-07T23:29:14.081Z,90.90
2018-09-07T23:31:48.562Z,90.90
2018-09-07T23:34:23.639Z,91.00
2018-09-07T23:36:58.197Z,91.00
2018-09-07T23:39:32.620Z,90.90
2018-09-07T23:42:07.266Z,91.10
2018-09-07T23:44:42.036Z,91.00
2018-09-07T23:47:16.721Z,91.10
2018-09-07T23:49:51.501Z,91.10
2018-09-07T23:52:26.223Z,91.20
2018-09-07T23:55:01.564Z,91.20
2018-09-07T23:57:35.660Z,91.20
